createdAt,value
2022-08-19T00:01:52.874Z,21.70
2022-08-19T00:04:28.533Z,21.60
2022-08-19T00:06:56.264Z,21.60
2022-08-19T00:09:25.238Z,21.60
2022-08-19T00:11:53.473Z,21.60
2022-08-19T00:14:21.817Z,21.50
2022-08-19T00:16:49.999Z,21.50
2022-08-19T00:19:18.160Z,21.50
2022-08-19T00:21:45.344Z,21.40
2022-08-19T00:24:16.296Z,21.40
2022-08-19T00:26:46.134Z,21.40
2022-08-19T00:29:15.837Z,21.40
2022-08-19T00:31:44.164Z,21.40
2022-08-19T00:34:13.221Z,21.30
2022-08-19T00:36:42.044Z,21.30
2022-08-19T00:39:09.844Z,21.30
2022-08-19T00:41:37.101Z,21.30
2022-08-19T00:44:10.570Z,21.30
2022-08-19T00:46:39.831Z,21.30
2022-08-19T00:49:23.562Z,21.30
2022-08-19T00:52:00.113Z,21.30
2022-08-19T00:54:31.303Z,21.30
2022-08-19T00:57:00.622Z,21.20
2022-08-19T00:59:56.191Z,21.30
2022-08-19T01:02:17.863Z,21.20
2022-08-19T01:04:45.018Z,21.20
2022-08-19T01:07:15.097Z,21.20
2022-08-19T01:09:44.934Z,21.20
2022-08-19T01:12:12.395Z,21.10
2022-08-19T01:14:40.984Z,21.10
2022-08-19T01:17:12.890Z,21.10
2022-08-19T01:19:44.131Z,21.20
2022-08-19T01:22:31.542Z,21.10
2022-08-19T01:25:01.060Z,21.10
2022-08-19T01:27:43.079Z,21.10
2022-08-19T01:30:15.364Z,21.10
2022-08-19T01:32:44.202Z,21.10
2022-08-19T01:35:13.281Z,21.00
2022-08-19T01:37:56.608Z,21.00
2022-08-19T01:40:27.587Z,21.00
2022-08-19T01:42:55.211Z,20.90
2022-08-19T01:45:25.686Z,20.90
2022-08-19T01:48:01.888Z,20.90
2022-08-19T01:50:31.884Z,20.90
2022-08-19T01:53:06.286Z,20.80
2022-08-19T01:55:40.999Z,20.80
2022-08-19T01:58:20.335Z,20.70
2022-08-19T02:00:48.727Z,20.70
2022-08-19T02:03:16.994Z,20.70
2022-08-19T02:05:44.942Z,20.70
2022-08-19T02:08:13.052Z,20.60
2022-08-19T02:10:43.347Z,20.60
2022-08-19T02:13:12.038Z,20.60
2022-08-19T02:15:39.361Z,20.60
2022-08-19T02:18:07.416Z,20.50
2022-08-19T02:20:34.905Z,20.50
2022-08-19T02:23:02.306Z,20.50
2022-08-19T02:25:29.600Z,20.50
2022-08-19T02:27:56.682Z,20.40
2022-08-19T02:30:25.649Z,20.50
2022-08-19T02:32:53.726Z,20.40
2022-08-19T02:35:21.008Z,20.50
2022-08-19T02:38:06.788Z,20.40
2022-08-19T02:40:35.363Z,20.40
2022-08-19T02:43:08.427Z,20.40
2022-08-19T02:45:40.427Z,20.40
2022-08-19T02:48:17.925Z,20.40
2022-08-19T02:50:56.352Z,20.40
2022-08-19T02:53:27.191Z,20.30
2022-08-19T02:55:54.979Z,20.30
2022-08-19T02:58:23.433Z,20.30
2022-08-19T03:00:56.984Z,20.30
2022-08-19T03:03:24.613Z,20.30
2022-08-19T03:05:56.836Z,20.30
2022-08-19T03:08:25.458Z,20.30
2022-08-19T03:10:54.060Z,20.30
2022-08-19T03:13:21.433Z,20.30
2022-08-19T03:15:49.187Z,20.30
2022-08-19T03:18:17.973Z,20.30
2022-08-19T03:20:48.486Z,20.30
2022-08-19T03:23:16.390Z,20.30
2022-08-19T03:25:46.809Z,20.30
2022-08-19T03:28:25.333Z,20.30
2022-08-19T03:30:59.512Z,20.30
2022-08-19T03:33:30.858Z,20.30
2022-08-19T03:36:08.468Z,20.30
2022-08-19T03:38:41.301Z,20.30
2022-08-19T03:41:12.062Z,20.30
2022-08-19T03:43:40.625Z,20.30
2022-08-19T03:46:13.053Z,20.30
2022-08-19T03:48:42.402Z,20.30
2022-08-19T03:51:18.314Z,20.30
2022-08-19T03:54:01.393Z,20.30
2022-08-19T03:56:29.302Z,20.30
2022-08-19T03:58:57.886Z,20.40
2022-08-19T04:01:35.113Z,20.40
2022-08-19T04:04:04.825Z,20.40
2022-08-19T04:06:35.520Z,20.40
2022-08-19T04:09:10.408Z,20.50
2022-08-19T04:11:44.955Z,20.50
2022-08-19T04:14:19.428Z,20.60
2022-08-19T04:16:48.986Z,20.60
2022-08-19T04:19:18.111Z,20.70
2022-08-19T04:21:48.932Z,20.70
2022-08-19T04:24:16.575Z,20.80
2022-08-19T04:26:44.258Z,20.90
2022-08-19T04:29:23.032Z,20.90
2022-08-19T04:31:50.717Z,21.00
2022-08-19T04:34:23.244Z,21.10
2022-08-19T04:36:52.172Z,21.00
2022-08-19T04:39:24.111Z,21.10
2022-08-19T04:42:10.252Z,21.20
2022-08-19T04:44:39.906Z,21.20
2022-08-19T04:47:13.584Z,21.20
2022-08-19T04:49:41.099Z,21.30
2022-08-19T04:52:09.456Z,21.30
2022-08-19T04:54:38.336Z,21.40
2022-08-19T04:57:11.312Z,21.50
2022-08-19T04:59:40.441Z,21.50
2022-08-19T05:02:09.663Z,21.60
2022-08-19T05:04:40.104Z,21.70
2022-08-19T05:07:08.951Z,21.70
2022-08-19T05:09:57.638Z,21.80
2022-08-19T05:12:28.788Z,21.80
2022-08-19T05:14:58.343Z,21.90
2022-08-19T05:17:29.670Z,22.00
2022-08-19T05:20:18.114Z,22.10
2022-08-19T05:22:47.168Z,22.20
2022-08-19T05:25:20.054Z,22.30
2022-08-19T05:27:48.171Z,22.40
2022-08-19T05:30:15.958Z,22.50
2022-08-19T05:32:43.932Z,22.60
2022-08-19T05:35:12.276Z,22.70
2022-08-19T05:37:41.484Z,22.80
2022-08-19T05:40:10.643Z,22.90
2022-08-19T05:42:38.859Z,23.00
2022-08-19T05:45:08.717Z,23.10
2022-08-19T05:47:36.628Z,23.20
2022-08-19T05:50:09.831Z,23.30
2022-08-19T05:52:39.128Z,23.40
2022-08-19T05:55:11.516Z,23.50
2022-08-19T05:57:38.810Z,23.60
2022-08-19T06:00:11.963Z,23.80
2022-08-19T06:02:39.770Z,23.80
2022-08-19T06:05:08.240Z,24.00
2022-08-19T06:07:36.627Z,24.10
2022-08-19T06:10:06.926Z,24.20
2022-08-19T06:12:35.966Z,24.30
2022-08-19T06:15:08.081Z,24.50
2022-08-19T06:17:36.234Z,24.50
2022-08-19T06:20:09.719Z,24.70
2022-08-19T06:22:45.853Z,24.80
2022-08-19T06:25:15.139Z,24.90
2022-08-19T06:28:11.521Z,24.90
2022-08-19T06:30:30.610Z,25.00
2022-08-19T06:32:57.999Z,25.10
2022-08-19T06:35:26.401Z,25.20
2022-08-19T06:37:53.623Z,25.30
2022-08-19T06:40:21.171Z,25.40
2022-08-19T06:42:50.977Z,25.50
2022-08-19T06:45:24.831Z,25.50
2022-08-19T06:47:55.328Z,25.70
2022-08-19T06:50:26.019Z,25.70
2022-08-19T06:52:53.658Z,25.90
2022-08-19T06:55:21.094Z,26.00
2022-08-19T06:57:49.177Z,26.00
2022-08-19T07:00:16.991Z,26.00
2022-08-19T07:02:49.630Z,26.00
2022-08-19T07:05:20.684Z,26.10
2022-08-19T07:07:47.870Z,26.00
2022-08-19T07:10:15.192Z,26.10
2022-08-19T07:12:42.681Z,26.10
2022-08-19T07:15:11.894Z,26.20
2022-08-19T07:17:40.258Z,26.20
2022-08-19T07:20:10.642Z,26.30
2022-08-19T07:22:39.039Z,26.30
2022-08-19T07:25:09.267Z,26.40
2022-08-19T07:27:38.082Z,26.40
2022-08-19T07:30:12.344Z,26.50
2022-08-19T07:32:41.057Z,26.60
2022-08-19T07:35:10.291Z,26.70
2022-08-19T07:37:38.257Z,26.80
2022-08-19T07:40:08.145Z,26.90
2022-08-19T07:42:35.883Z,26.90
2022-08-19T07:45:03.724Z,27.00
2022-08-19T07:47:49.242Z,27.10
2022-08-19T07:50:20.930Z,27.20
2022-08-19T07:52:50.597Z,27.30
2022-08-19T07:55:41.740Z,27.30
2022-08-19T07:58:13.703Z,27.40
2022-08-19T08:00:42.698Z,27.40
2022-08-19T08:03:10.289Z,27.60
2022-08-19T08:05:56.170Z,27.60
2022-08-19T08:08:44.342Z,27.70
2022-08-19T08:11:19.952Z,27.80
2022-08-19T08:14:00.800Z,27.90
2022-08-19T08:16:34.962Z,28.00
2022-08-19T08:19:02.141Z,28.10
2022-08-19T08:21:29.377Z,28.20
2022-08-19T08:23:56.924Z,28.30
2022-08-19T08:26:26.037Z,28.40
2022-08-19T08:28:54.188Z,28.50
2022-08-19T08:31:21.650Z,28.60
2022-08-19T08:33:49.029Z,28.70
2022-08-19T08:36:17.161Z,28.80
2022-08-19T08:38:46.663Z,28.90
2022-08-19T08:41:34.629Z,28.90
2022-08-19T08:44:05.166Z,29.10
2022-08-19T08:46:44.601Z,29.10
2022-08-19T08:49:29.998Z,29.20
2022-08-19T08:52:32.121Z,29.30
2022-08-19T08:55:10.087Z,29.30
2022-08-19T08:58:04.247Z,29.40
2022-08-19T09:00:33.103Z,29.40
2022-08-19T09:03:04.510Z,29.50
2022-08-19T09:05:39.642Z,29.60
2022-08-19T09:08:37.850Z,29.70
2022-08-19T09:11:10.752Z,29.80
2022-08-19T09:13:59.860Z,29.90
2022-08-19T09:16:28.636Z,29.90
2022-08-19T09:19:02.890Z,30.00
2022-08-19T09:21:30.459Z,30.10
2022-08-19T09:24:05.457Z,30.20
2022-08-19T09:26:47.679Z,30.30
2022-08-19T09:29:22.444Z,30.30
2022-08-19T09:31:50.952Z,30.40
2022-08-19T09:34:22.126Z,30.50
2022-08-19T09:36:56.152Z,30.60
2022-08-19T09:39:23.684Z,30.70
2022-08-19T09:41:51.412Z,30.70
2022-08-19T09:44:21.931Z,30.80
2022-08-19T09:46:49.341Z,30.80
2022-08-19T09:49:18.704Z,30.90
2022-08-19T09:51:51.295Z,31.00
2022-08-19T09:54:25.046Z,31.00
2022-08-19T09:56:54.430Z,31.10
2022-08-19T09:59:22.678Z,31.10
2022-08-19T10:01:49.801Z,31.20
2022-08-19T10:04:20.247Z,31.30
2022-08-19T10:06:53.812Z,31.40
2022-08-19T10:09:26.302Z,31.50
2022-08-19T10:12:04.499Z,31.50
2022-08-19T10:14:33.747Z,31.60
2022-08-19T10:17:04.594Z,31.60
2022-08-19T10:19:53.396Z,31.70
2022-08-19T10:22:23.904Z,31.80
2022-08-19T10:24:53.533Z,31.80
2022-08-19T10:27:20.783Z,31.80
2022-08-19T10:29:48.845Z,32.00
2022-08-19T10:32:16.174Z,32.20
2022-08-19T10:34:48.624Z,32.70
2022-08-19T10:37:23.716Z,33.10
2022-08-19T10:39:51.840Z,33.50
2022-08-19T10:42:20.123Z,33.80
2022-08-19T10:44:47.867Z,34.20
2022-08-19T10:47:24.613Z,34.60
2022-08-19T10:50:13.240Z,34.70
2022-08-19T10:52:49.088Z,34.80
2022-08-19T10:55:39.432Z,34.70
2022-08-19T10:58:16.409Z,34.50
2022-08-19T11:00:44.736Z,34.30
2022-08-19T11:03:12.726Z,34.00
2022-08-19T11:05:40.766Z,33.70
2022-08-19T11:08:18.115Z,33.50
2022-08-19T11:10:54.702Z,33.30
2022-08-19T11:13:24.169Z,33.10
2022-08-19T11:16:08.579Z,32.90
2022-08-19T11:18:41.307Z,32.90
2022-08-19T11:21:21.112Z,32.80
2022-08-19T11:23:50.210Z,32.70
2022-08-19T11:26:19.860Z,32.70
2022-08-19T11:28:47.493Z,32.60
2022-08-19T11:31:18.429Z,32.60
2022-08-19T11:33:47.978Z,32.70
2022-08-19T11:36:17.052Z,32.70
2022-08-19T11:38:45.645Z,32.80
2022-08-19T11:41:14.172Z,32.80
2022-08-19T11:43:41.332Z,32.90
2022-08-19T11:46:10.900Z,32.90
2022-08-19T11:48:38.928Z,33.00
2022-08-19T11:51:10.392Z,33.00
2022-08-19T11:53:38.736Z,33.00
2022-08-19T11:56:07.863Z,33.00
2022-08-19T11:58:35.575Z,33.10
2022-08-19T12:01:06.364Z,33.10
2022-08-19T12:03:35.025Z,33.20
2022-08-19T12:06:11.089Z,33.20
2022-08-19T12:08:39.234Z,33.30
2022-08-19T12:11:08.891Z,33.40
2022-08-19T12:13:37.725Z,33.40
2022-08-19T12:16:17.533Z,33.40
2022-08-19T12:18:47.283Z,33.50
2022-08-19T12:21:16.048Z,33.50
2022-08-19T12:23:43.814Z,33.50
2022-08-19T12:26:12.678Z,33.50
2022-08-19T12:28:40.248Z,33.50
2022-08-19T12:31:07.370Z,33.60
2022-08-19T12:33:35.169Z,33.60
2022-08-19T12:36:06.656Z,33.60
2022-08-19T12:38:35.636Z,33.60
2022-08-19T12:41:07.324Z,33.70
2022-08-19T12:43:42.821Z,33.70
2022-08-19T12:46:11.030Z,33.70
2022-08-19T12:48:42.640Z,33.80
2022-08-19T12:51:13.170Z,33.80
2022-08-19T12:53:41.376Z,34.00
2022-08-19T12:56:12.769Z,34.20
2022-08-19T12:58:40.343Z,34.40
2022-08-19T13:01:13.582Z,34.70
2022-08-19T13:03:40.962Z,35.00
2022-08-19T13:06:09.695Z,35.40
2022-08-19T13:08:37.529Z,35.70
2022-08-19T13:11:12.844Z,36.00
2022-08-19T13:13:42.191Z,36.30
2022-08-19T13:16:12.008Z,36.80
2022-08-19T13:18:40.801Z,37.20
2022-08-19T13:21:10.038Z,37.50
2022-08-19T13:23:37.492Z,37.80
2022-08-19T13:26:07.160Z,38.10
2022-08-19T13:28:54.362Z,38.40
2022-08-19T13:31:41.774Z,38.70
2022-08-19T13:34:09.325Z,38.90
2022-08-19T13:36:37.826Z,39.00
2022-08-19T13:39:06.893Z,39.10
2022-08-19T13:41:34.866Z,39.10
2022-08-19T13:44:02.884Z,39.20
2022-08-19T13:46:31.557Z,39.20
2022-08-19T13:48:58.910Z,39.20
2022-08-19T13:51:26.064Z,39.20
2022-08-19T13:53:53.825Z,39.00
2022-08-19T13:56:25.879Z,38.80
2022-08-19T13:58:54.494Z,38.60
2022-08-19T14:01:24.477Z,38.40
2022-08-19T14:03:52.448Z,38.50
2022-08-19T14:06:20.064Z,38.60
2022-08-19T14:08:47.365Z,38.70
2022-08-19T14:11:15.054Z,38.90
2022-08-19T14:13:42.403Z,38.90
2022-08-19T14:16:11.051Z,38.70
2022-08-19T14:18:39.517Z,38.60
2022-08-19T14:21:07.670Z,38.50
2022-08-19T14:23:36.988Z,38.40
2022-08-19T14:26:16.705Z,38.20
2022-08-19T14:28:45.479Z,37.90
2022-08-19T14:31:17.672Z,37.60
2022-08-19T14:33:44.902Z,37.40
2022-08-19T14:36:12.189Z,37.00
2022-08-19T14:38:40.352Z,36.60
2022-08-19T14:41:17.755Z,36.50
2022-08-19T14:43:47.403Z,36.20
2022-08-19T14:46:17.100Z,36.10
2022-08-19T14:48:45.070Z,36.10
2022-08-19T14:51:12.502Z,36.10
2022-08-19T14:53:39.910Z,36.10
2022-08-19T14:56:12.996Z,36.10
2022-08-19T14:58:44.186Z,36.10
2022-08-19T15:01:12.606Z,36.10
2022-08-19T15:03:41.552Z,36.00
2022-08-19T15:06:09.585Z,36.00
2022-08-19T15:08:42.101Z,35.90
2022-08-19T15:11:11.714Z,35.90
2022-08-19T15:13:40.139Z,35.80
2022-08-19T15:16:07.869Z,35.70
2022-08-19T15:18:47.475Z,35.70
2022-08-19T15:21:26.625Z,35.70
2022-08-19T15:23:56.460Z,35.60
2022-08-19T15:26:23.644Z,35.60
2022-08-19T15:28:50.956Z,35.50
2022-08-19T15:31:25.344Z,35.50
2022-08-19T15:33:58.951Z,35.30
2022-08-19T15:36:27.585Z,35.10
2022-08-19T15:38:56.726Z,35.00
2022-08-19T15:41:30.493Z,34.90
2022-08-19T15:44:10.365Z,34.90
2022-08-19T15:46:40.185Z,34.90
2022-08-19T15:49:10.633Z,34.80
2022-08-19T15:51:39.509Z,34.80
2022-08-19T15:54:08.990Z,34.70
2022-08-19T15:57:08.642Z,34.60
2022-08-19T15:59:55.886Z,34.60
2022-08-19T16:02:47.100Z,34.50
2022-08-19T16:05:36.501Z,34.40
2022-08-19T16:08:03.881Z,34.30
2022-08-19T16:10:31.329Z,34.20
2022-08-19T16:12:59.128Z,34.00
2022-08-19T16:15:28.538Z,33.80
2022-08-19T16:17:57.671Z,33.70
2022-08-19T16:20:27.261Z,33.60
2022-08-19T16:22:58.627Z,33.40
2022-08-19T16:25:28.582Z,33.20
2022-08-19T16:28:06.537Z,33.00
2022-08-19T16:30:40.267Z,32.80
2022-08-19T16:33:10.433Z,32.70
2022-08-19T16:35:37.866Z,32.50
2022-08-19T16:38:06.910Z,32.30
2022-08-19T16:40:35.607Z,32.30
2022-08-19T16:43:03.327Z,32.20
2022-08-19T16:45:30.630Z,32.10
2022-08-19T16:47:58.428Z,32.00
2022-08-19T16:50:46.110Z,32.00
2022-08-19T16:53:14.185Z,31.90
2022-08-19T16:55:41.417Z,31.90
2022-08-19T16:58:08.641Z,31.80
2022-08-19T17:00:35.976Z,31.70
2022-08-19T17:03:10.003Z,31.60
2022-08-19T17:05:47.798Z,31.50
2022-08-19T17:08:19.187Z,31.30
2022-08-19T17:11:07.875Z,31.10
2022-08-19T17:13:35.645Z,31.00
2022-08-19T17:16:03.256Z,30.80
2022-08-19T17:18:32.778Z,30.70
2022-08-19T17:21:01.235Z,30.60
2022-08-19T17:23:43.222Z,30.40
2022-08-19T17:26:18.306Z,30.30
2022-08-19T17:28:51.288Z,30.10
2022-08-19T17:31:21.176Z,30.00
2022-08-19T17:33:49.125Z,29.90
2022-08-19T17:36:17.950Z,29.70
2022-08-19T17:38:45.403Z,29.60
2022-08-19T17:41:12.677Z,29.40
2022-08-19T17:43:43.665Z,29.30
2022-08-19T17:46:18.105Z,29.20
2022-08-19T17:48:52.080Z,29.10
2022-08-19T17:51:35.940Z,28.90
2022-08-19T17:54:05.416Z,28.80
2022-08-19T17:56:32.757Z,28.70
2022-08-19T17:59:01.815Z,28.60
2022-08-19T18:01:52.107Z,28.50
2022-08-19T18:04:18.950Z,28.40
2022-08-19T18:06:52.708Z,28.30
2022-08-19T18:09:30.048Z,28.20
2022-08-19T18:12:12.791Z,28.10
2022-08-19T18:14:41.380Z,28.00
2022-08-19T18:17:12.469Z,27.90
2022-08-19T18:19:43.522Z,27.90
2022-08-19T18:22:36.480Z,27.80
2022-08-19T18:25:11.544Z,27.70
2022-08-19T18:27:39.177Z,27.70
2022-08-19T18:30:07.981Z,27.60
2022-08-19T18:32:38.487Z,27.60
2022-08-19T18:35:16.528Z,27.60
2022-08-19T18:37:45.380Z,27.50
2022-08-19T18:40:35.490Z,27.50
2022-08-19T18:43:22.337Z,27.50
2022-08-19T18:46:08.422Z,27.50
2022-08-19T18:48:55.734Z,27.40
2022-08-19T18:51:27.792Z,27.40
2022-08-19T18:53:58.825Z,27.40
2022-08-19T18:56:35.189Z,27.30
2022-08-19T18:59:02.581Z,27.30
2022-08-19T19:01:36.792Z,27.30
2022-08-19T19:04:10.692Z,27.30
2022-08-19T19:06:41.037Z,27.20
2022-08-19T19:09:10.594Z,27.20
2022-08-19T19:11:46.316Z,27.10
2022-08-19T19:14:38.783Z,27.10
2022-08-19T19:17:08.180Z,27.10
2022-08-19T19:19:35.666Z,27.00
2022-08-19T19:22:04.551Z,27.00
2022-08-19T19:24:37.428Z,26.90
2022-08-19T19:27:08.352Z,26.90
2022-08-19T19:29:37.044Z,26.90
2022-08-19T19:32:07.230Z,26.80
2022-08-19T19:34:37.016Z,26.90
2022-08-19T19:37:04.441Z,26.90
2022-08-19T19:39:45.371Z,26.80
2022-08-19T19:42:20.108Z,26.80
2022-08-19T19:44:50.557Z,26.80
2022-08-19T19:47:19.546Z,26.70
2022-08-19T19:50:13.262Z,26.70
2022-08-19T19:52:41.036Z,26.70
2022-08-19T19:55:09.619Z,26.70
2022-08-19T19:57:39.714Z,26.60
2022-08-19T20:00:09.144Z,26.60
2022-08-19T20:02:36.228Z,26.60
2022-08-19T20:05:03.811Z,26.60
2022-08-19T20:07:50.112Z,26.50
2022-08-19T20:10:17.308Z,26.50
2022-08-19T20:12:44.679Z,26.50
2022-08-19T20:15:11.843Z,26.50
2022-08-19T20:17:42.617Z,26.40
2022-08-19T20:20:15.069Z,26.40
2022-08-19T20:22:43.470Z,26.30
2022-08-19T20:25:12.084Z,26.30
2022-08-19T20:27:39.829Z,26.30
2022-08-19T20:30:19.770Z,26.20
2022-08-19T20:32:48.999Z,26.20
2022-08-19T20:35:19.504Z,26.10
2022-08-19T20:37:47.253Z,26.00
2022-08-19T20:40:15.209Z,25.90
2022-08-19T20:42:43.817Z,25.90
2022-08-19T20:45:18.018Z,25.80
2022-08-19T20:48:02.704Z,25.70
2022-08-19T20:50:31.567Z,25.70
2022-08-19T20:52:58.782Z,25.60
2022-08-19T20:55:27.405Z,25.50
2022-08-19T20:57:55.152Z,25.50
2022-08-19T21:00:22.465Z,25.40
2022-08-19T21:02:50.109Z,25.40
2022-08-19T21:05:17.267Z,25.30
2022-08-19T21:07:44.420Z,25.30
2022-08-19T21:10:11.758Z,25.20
2022-08-19T21:12:39.597Z,25.20
2022-08-19T21:15:07.303Z,25.10
2022-08-19T21:17:34.686Z,25.10
2022-08-19T21:20:01.973Z,25.10
2022-08-19T21:22:29.164Z,25.00
2022-08-19T21:24:56.652Z,25.00
2022-08-19T21:27:23.886Z,25.00
2022-08-19T21:29:51.759Z,24.90
2022-08-19T21:32:20.594Z,24.90
2022-08-19T21:34:47.706Z,24.90
2022-08-19T21:37:25.237Z,24.90
2022-08-19T21:39:54.495Z,24.90
2022-08-19T21:42:23.189Z,24.80
2022-08-19T21:44:50.553Z,24.80
2022-08-19T21:47:18.265Z,24.80
2022-08-19T21:49:45.461Z,24.70
2022-08-19T21:52:13.398Z,24.70
2022-08-19T21:54:40.706Z,24.70
2022-08-19T21:57:10.888Z,24.70
2022-08-19T21:59:44.169Z,24.70
2022-08-19T22:02:20.416Z,24.70
2022-08-19T22:04:49.145Z,24.60
2022-08-19T22:07:16.930Z,24.50
2022-08-19T22:09:46.053Z,24.50
2022-08-19T22:12:26.624Z,24.50
2022-08-19T22:14:55.140Z,24.50
2022-08-19T22:17:22.993Z,24.40
2022-08-19T22:19:52.571Z,24.40
2022-08-19T22:22:24.939Z,24.40
2022-08-19T22:24:53.467Z,24.40
2022-08-19T22:27:22.204Z,24.40
2022-08-19T22:29:52.602Z,24.30
2022-08-19T22:32:27.947Z,24.30
2022-08-19T22:34:59.129Z,24.30
2022-08-19T22:37:28.865Z,24.30
2022-08-19T22:39:56.290Z,24.30
2022-08-19T22:42:24.769Z,24.30
2022-08-19T22:44:58.808Z,24.30
2022-08-19T22:47:27.152Z,24.30
2022-08-19T22:49:57.305Z,24.20
2022-08-19T22:52:24.411Z,24.20
2022-08-19T22:54:59.186Z,24.20
2022-08-19T22:57:27.567Z,24.20
2022-08-19T22:59:58.862Z,24.20
2022-08-19T23:02:34.508Z,24.20
2022-08-19T23:05:03.979Z,24.20
2022-08-19T23:07:31.525Z,24.20
2022-08-19T23:09:58.825Z,24.20
2022-08-19T23:12:35.139Z,24.20
2022-08-19T23:15:06.105Z,24.20
2022-08-19T23:17:33.693Z,24.20
2022-08-19T23:20:00.896Z,24.10
2022-08-19T23:22:30.418Z,24.10
2022-08-19T23:25:04.089Z,24.10
2022-08-19T23:27:50.072Z,24.10
2022-08-19T23:30:26.609Z,24.10
2022-08-19T23:33:12.703Z,24.10
2022-08-19T23:35:41.749Z,24.10
2022-08-19T23:38:09.957Z,24.10
2022-08-19T23:40:39.255Z,24.10
2022-08-19T23:43:09.765Z,24.10
2022-08-19T23:45:40.495Z,24.10
2022-08-19T23:48:10.185Z,24.10
2022-08-19T23:50:40.266Z,24.10
2022-08-19T23:53:13.404Z,24.00
2022-08-19T23:55:43.999Z,24.00
2022-08-19T23:58:11.622Z,24.00
